createdAt,value
2022-12-18T00:01:26.383Z,18.27
2022-12-18T00:03:57.119Z,22.30
2022-12-18T00:06:25.895Z,20.73
2022-12-18T00:08:53.963Z,21.80
2022-12-18T00:11:24.979Z,21.30
2022-12-18T00:13:53.290Z,19.98
2022-12-18T00:16:23.789Z,18.73
2022-12-18T00:18:52.958Z,18.95
2022-12-18T00:21:22.570Z,21.70
2022-12-18T00:23:51.798Z,18.67
2022-12-18T00:26:25.699Z,19.80
2022-12-18T00:29:00.823Z,22.50
2022-12-18T00:31:31.135Z,19.80
2022-12-18T00:33:59.605Z,18.60
2022-12-18T00:36:30.442Z,19.00
2022-12-18T00:39:01.721Z,19.77
2022-12-18T00:41:44.213Z,19.58
2022-12-18T00:44:14.127Z,17.15
2022-12-18T00:46:42.358Z,16.80
2022-12-18T00:49:10.203Z,16.50
2022-12-18T00:51:39.190Z,17.15
2022-12-18T00:54:06.925Z,21.38
2022-12-18T00:56:34.603Z,19.73
2022-12-18T00:59:02.965Z,17.98
2022-12-18T01:01:30.784Z,20.08
2022-12-18T01:03:59.541Z,17.75
2022-12-18T01:06:27.299Z,18.33
2022-12-18T01:08:56.869Z,18.70
2022-12-18T01:11:24.922Z,21.27
2022-12-18T01:13:54.086Z,18.55
2022-12-18T01:16:24.377Z,19.60
2022-12-18T01:18:54.845Z,19.25
2022-12-18T01:21:23.374Z,18.35
2022-12-18T01:23:54.129Z,18.40
2022-12-18T01:26:23.553Z,17.38
2022-12-18T01:28:52.090Z,18.17
2022-12-18T01:31:23.139Z,17.60
2022-12-18T01:33:52.032Z,18.75
2022-12-18T01:36:22.974Z,17.65
2022-12-18T01:38:52.109Z,19.38
2022-12-18T01:41:22.130Z,18.02
2022-12-18T01:43:54.592Z,17.17
2022-12-18T01:46:26.189Z,18.52
2022-12-18T01:49:00.930Z,17.20
2022-12-18T01:51:30.294Z,16.90
2022-12-18T01:54:00.700Z,17.70
2022-12-18T01:56:28.584Z,19.17
2022-12-18T01:59:02.842Z,15.20
2022-12-18T02:01:32.437Z,16.77
2022-12-18T02:04:21.925Z,17.63
2022-12-18T02:06:57.087Z,18.25
2022-12-18T02:09:32.570Z,15.73
2022-12-18T02:12:08.101Z,15.68
2022-12-18T02:14:44.008Z,21.00
2022-12-18T02:17:15.858Z,17.33
2022-12-18T02:19:56.977Z,16.30
2022-12-18T02:22:32.093Z,20.08
2022-12-18T02:25:14.146Z,16.92
2022-12-18T02:27:46.315Z,18.27
2022-12-18T02:30:15.201Z,17.65
2022-12-18T02:32:45.330Z,18.77
2022-12-18T02:35:18.555Z,18.77
2022-12-18T02:37:49.337Z,16.58
2022-12-18T02:40:19.978Z,18.05
2022-12-18T02:42:49.141Z,15.80
2022-12-18T02:45:20.038Z,17.88
2022-12-18T02:47:50.986Z,18.02
2022-12-18T02:50:24.461Z,17.75
2022-12-18T02:53:05.875Z,18.45
2022-12-18T02:55:47.501Z,20.60
2022-12-18T02:58:22.371Z,17.60
2022-12-18T03:00:59.841Z,18.25
2022-12-18T03:03:36.482Z,18.17
2022-12-18T03:06:10.549Z,16.95
2022-12-18T03:08:41.317Z,16.02
2022-12-18T03:11:13.219Z,18.88
2022-12-18T03:13:47.745Z,18.83
2022-12-18T03:16:19.748Z,21.05
2022-12-18T03:18:50.124Z,19.52
2022-12-18T03:21:21.466Z,19.45
2022-12-18T03:23:52.595Z,18.02
2022-12-18T03:26:26.509Z,19.55
2022-12-18T03:29:05.234Z,20.25
2022-12-18T03:31:34.870Z,17.65
2022-12-18T03:34:06.110Z,19.60
2022-12-18T03:36:41.929Z,19.67
2022-12-18T03:39:10.205Z,18.02
2022-12-18T03:41:46.472Z,17.63
2022-12-18T03:44:31.191Z,18.70
2022-12-18T03:47:08.084Z,18.50
2022-12-18T03:49:41.070Z,17.23
2022-12-18T03:52:12.878Z,17.52
2022-12-18T03:54:44.476Z,19.60
2022-12-18T03:57:19.350Z,19.67
2022-12-18T03:59:53.230Z,17.83
2022-12-18T04:02:26.534Z,15.73
2022-12-18T04:05:00.082Z,18.08
2022-12-18T04:07:29.240Z,17.23
2022-12-18T04:10:02.705Z,18.38
2022-12-18T04:12:32.132Z,17.70
2022-12-18T04:15:01.370Z,17.98
2022-12-18T04:17:29.026Z,17.65
2022-12-18T04:19:56.799Z,17.58
2022-12-18T04:22:26.339Z,18.85
2022-12-18T04:24:59.810Z,17.30
2022-12-18T04:27:34.525Z,15.82
2022-12-18T04:30:05.455Z,18.58
2022-12-18T04:32:35.411Z,16.85
2022-12-18T04:35:04.982Z,17.85
2022-12-18T04:37:33.536Z,15.90
2022-12-18T04:40:01.631Z,16.27
2022-12-18T04:42:38.058Z,16.60
2022-12-18T04:45:08.126Z,17.15
2022-12-18T04:47:35.934Z,15.43
2022-12-18T04:50:04.903Z,16.63
2022-12-18T04:52:33.903Z,14.85
2022-12-18T04:55:01.584Z,17.33
2022-12-18T04:57:29.246Z,16.88
2022-12-18T04:59:56.917Z,17.52
2022-12-18T05:02:26.054Z,18.30
2022-12-18T05:04:53.889Z,19.88
2022-12-18T05:07:21.653Z,17.20
2022-12-18T05:09:49.432Z,19.10
2022-12-18T05:12:17.207Z,20.75
2022-12-18T05:14:44.911Z,19.80
2022-12-18T05:17:13.156Z,19.10
2022-12-18T05:19:42.174Z,19.30
2022-12-18T05:22:09.934Z,18.67
2022-12-18T05:24:37.731Z,18.50
2022-12-18T05:27:05.410Z,18.70
2022-12-18T05:29:33.110Z,17.65
2022-12-18T05:32:00.794Z,18.67
2022-12-18T05:34:29.115Z,16.88
2022-12-18T05:36:58.158Z,18.70
2022-12-18T05:39:25.839Z,18.08
2022-12-18T05:41:53.522Z,18.58
2022-12-18T05:44:21.263Z,16.90
2022-12-18T05:46:49.000Z,16.02
2022-12-18T05:49:16.783Z,16.63
2022-12-18T05:51:44.432Z,17.23
2022-12-18T05:54:13.437Z,17.65
2022-12-18T05:56:46.998Z,18.02
2022-12-18T05:59:16.354Z,17.80
2022-12-18T06:01:44.227Z,16.42
2022-12-18T06:04:13.215Z,16.08
2022-12-18T06:06:41.116Z,16.77
2022-12-18T06:09:10.434Z,16.73
2022-12-18T06:11:39.972Z,17.65
2022-12-18T06:14:08.602Z,17.58
2022-12-18T06:16:36.414Z,18.52
2022-12-18T06:19:06.242Z,16.90
2022-12-18T06:21:34.821Z,19.90
2022-12-18T06:24:02.951Z,19.33
2022-12-18T06:26:30.660Z,19.30
2022-12-18T06:28:59.701Z,19.48
2022-12-18T06:31:27.693Z,17.55
2022-12-18T06:33:55.586Z,19.85
2022-12-18T06:36:23.523Z,20.20
2022-12-18T06:38:51.433Z,18.02
2022-12-18T06:41:21.782Z,17.67
2022-12-18T06:43:49.488Z,18.65
2022-12-18T06:46:18.655Z,19.52
2022-12-18T06:48:50.370Z,16.48
2022-12-18T06:51:19.763Z,20.25
2022-12-18T06:53:47.577Z,18.35
2022-12-18T06:56:15.367Z,17.77
2022-12-18T06:58:43.100Z,17.75
2022-12-18T07:01:12.638Z,15.13
2022-12-18T07:03:43.574Z,18.50
2022-12-18T07:06:17.218Z,18.75
2022-12-18T07:08:45.215Z,20.60
2022-12-18T07:11:13.173Z,16.33
2022-12-18T07:13:41.294Z,17.27
2022-12-18T07:16:18.363Z,17.85
2022-12-18T07:18:51.554Z,17.08
2022-12-18T07:21:21.254Z,15.88
2022-12-18T07:23:49.565Z,16.63
2022-12-18T07:26:19.121Z,16.75
2022-12-18T07:28:46.872Z,17.52
2022-12-18T07:31:17.329Z,17.63
2022-12-18T07:33:45.792Z,17.52
2022-12-18T07:36:15.342Z,17.65
2022-12-18T07:38:43.170Z,17.70
2022-12-18T07:41:12.819Z,16.08
2022-12-18T07:43:42.036Z,17.33
2022-12-18T07:46:11.806Z,19.83
2022-12-18T07:48:41.503Z,18.10
2022-12-18T07:51:09.734Z,18.77
2022-12-18T07:53:39.184Z,18.65
2022-12-18T07:58:57.980Z,18.08
2022-12-18T08:01:26.282Z,18.35
2022-12-18T08:03:54.390Z,19.33
2022-12-18T08:06:23.808Z,16.90
2022-12-18T08:08:54.342Z,17.70
2022-12-18T08:11:22.125Z,18.35
2022-12-18T08:13:49.875Z,16.23
2022-12-18T08:16:18.467Z,19.10
2022-12-18T08:18:49.555Z,20.38
2022-12-18T08:21:20.605Z,17.80
2022-12-18T08:23:50.164Z,18.48
2022-12-18T08:26:21.080Z,17.48
2022-12-18T08:28:49.942Z,17.92
2022-12-18T08:31:18.930Z,20.75
2022-12-18T08:33:47.376Z,18.73
2022-12-18T08:36:15.085Z,19.92
2022-12-18T08:38:42.950Z,17.95
2022-12-18T08:41:12.412Z,16.85
2022-12-18T08:43:56.146Z,18.20
2022-12-18T08:46:26.160Z,16.83
2022-12-18T08:48:54.950Z,19.42
2022-12-18T08:51:22.951Z,21.42
2022-12-18T08:53:50.692Z,20.13
2022-12-18T08:56:18.591Z,16.95
2022-12-18T08:58:47.728Z,19.73
2022-12-18T09:01:15.761Z,17.38
2022-12-18T09:03:44.146Z,19.10
2022-12-18T09:06:16.518Z,17.70
2022-12-18T09:08:44.942Z,21.65
2022-12-18T09:11:16.348Z,19.95
2022-12-18T09:13:44.094Z,18.05
2022-12-18T09:16:13.110Z,18.52
2022-12-18T09:18:41.367Z,19.83
2022-12-18T09:21:10.954Z,18.98
2022-12-18T09:23:38.887Z,19.58
2022-12-18T09:26:06.780Z,19.92
2022-12-18T09:28:34.498Z,20.30
2022-12-18T09:31:06.531Z,19.70
2022-12-18T09:33:35.916Z,18.67
2022-12-18T09:36:07.539Z,20.38
2022-12-18T09:38:37.037Z,21.85
2022-12-18T09:41:08.270Z,18.92
2022-12-18T09:43:41.440Z,19.33
2022-12-18T09:46:13.528Z,18.08
2022-12-18T09:48:47.133Z,21.13
2022-12-18T09:51:19.350Z,19.02
2022-12-18T09:54:01.969Z,20.60
2022-12-18T09:56:33.316Z,18.48
2022-12-18T09:59:03.046Z,18.50
2022-12-18T10:01:41.561Z,22.30
2022-12-18T10:04:13.227Z,19.17
2022-12-18T10:06:46.821Z,19.25
2022-12-18T10:09:23.198Z,19.73
2022-12-18T10:12:02.897Z,18.40
2022-12-18T10:14:36.110Z,19.17
2022-12-18T10:17:15.542Z,19.50
2022-12-18T10:19:51.632Z,17.70
2022-12-18T10:22:31.528Z,18.45
2022-12-18T10:25:07.571Z,28.70
2022-12-18T10:27:35.676Z,19.98
2022-12-18T10:30:14.196Z,20.45
2022-12-18T10:32:43.859Z,17.15
2022-12-18T10:35:20.295Z,17.27
2022-12-18T10:38:04.983Z,16.20
2022-12-18T10:40:33.330Z,19.02
2022-12-18T10:43:06.720Z,18.80
2022-12-18T10:45:35.955Z,18.02
2022-12-18T10:48:04.226Z,20.60
2022-12-18T10:51:09.297Z,17.85
2022-12-18T10:53:25.678Z,16.50
2022-12-18T10:55:55.641Z,16.95
2022-12-18T10:58:27.445Z,16.42
2022-12-18T11:01:06.564Z,20.58
2022-12-18T11:03:37.707Z,19.55
2022-12-18T11:06:10.869Z,17.42
2022-12-18T11:08:40.126Z,18.35
2022-12-18T11:11:17.965Z,20.10
2022-12-18T11:13:59.526Z,17.52
2022-12-18T11:16:27.990Z,24.20
2022-12-18T11:18:56.366Z,18.55
2022-12-18T11:21:25.444Z,19.27
2022-12-18T11:23:54.963Z,19.15
2022-12-18T11:26:23.074Z,18.90
2022-12-18T11:28:54.246Z,18.85
2022-12-18T11:31:26.625Z,19.92
2022-12-18T11:36:50.514Z,21.42
2022-12-18T11:39:22.511Z,20.40
2022-12-18T11:42:09.321Z,21.70
2022-12-18T11:44:42.975Z,20.67
2022-12-18T11:47:21.352Z,23.20
2022-12-18T11:49:51.602Z,22.40
2022-12-18T11:52:24.396Z,19.17
2022-12-18T11:54:54.474Z,23.50
2022-12-18T11:57:36.002Z,21.90
2022-12-18T12:00:12.965Z,21.25
2022-12-18T12:03:03.384Z,19.42
2022-12-18T12:05:44.857Z,19.23
2022-12-18T12:08:24.526Z,22.45
2022-12-18T12:11:03.157Z,21.42
2022-12-18T12:13:43.173Z,22.15
2022-12-18T12:16:19.382Z,22.58
2022-12-18T12:18:58.479Z,20.85
2022-12-18T12:21:30.451Z,22.92
2022-12-18T12:24:12.560Z,22.40
2022-12-18T12:26:50.300Z,21.83
2022-12-18T12:29:34.405Z,19.92
2022-12-18T12:32:19.154Z,20.10
2022-12-18T12:34:59.633Z,19.65
2022-12-18T12:37:38.540Z,19.42
2022-12-18T12:40:40.983Z,23.17
2022-12-18T12:43:14.058Z,19.23
2022-12-18T12:45:47.916Z,23.33
2022-12-18T12:48:33.612Z,21.55
2022-12-18T12:51:05.285Z,19.73
2022-12-18T12:53:38.805Z,22.83
2022-12-18T12:56:13.189Z,22.17
2022-12-18T12:58:48.591Z,19.52
2022-12-18T13:01:25.018Z,19.77
2022-12-18T13:04:02.757Z,23.25
2022-12-18T13:06:44.386Z,21.73
2022-12-18T13:09:12.880Z,22.52
2022-12-18T13:11:59.991Z,22.15
2022-12-18T13:14:45.550Z,20.02
2022-12-18T13:17:18.164Z,19.90
2022-12-18T13:19:46.358Z,21.20
2022-12-18T13:22:24.642Z,21.60
2022-12-18T13:25:03.870Z,24.10
2022-12-18T13:27:56.897Z,20.50
2022-12-18T13:30:48.450Z,24.85
2022-12-18T13:33:56.402Z,23.60
2022-12-18T13:36:31.012Z,24.55
2022-12-18T13:39:28.659Z,25.15
2022-12-18T13:42:44.291Z,21.63
2022-12-18T13:45:41.966Z,22.20
2022-12-18T13:48:21.117Z,22.02
2022-12-18T13:50:53.832Z,21.95
2022-12-18T13:53:25.558Z,22.35
2022-12-18T13:55:53.693Z,23.67
2022-12-18T13:58:21.625Z,23.55
2022-12-18T14:00:50.454Z,23.85
2022-12-18T14:03:24.487Z,25.50
2022-12-18T14:05:57.126Z,25.83
2022-12-18T14:08:27.972Z,27.83
2022-12-18T14:10:55.805Z,25.52
2022-12-18T14:13:32.398Z,24.88
2022-12-18T14:16:04.057Z,24.52
2022-12-18T14:18:40.727Z,23.17
2022-12-18T14:21:17.124Z,24.98
2022-12-18T14:23:46.114Z,24.48
2022-12-18T14:26:30.693Z,27.05
2022-12-18T14:29:01.889Z,23.02
2022-12-18T14:31:32.476Z,29.70
2022-12-18T14:34:01.556Z,26.60
2022-12-18T14:36:31.093Z,26.05
2022-12-18T14:39:00.452Z,24.55
2022-12-18T14:41:29.644Z,27.10
2022-12-18T14:44:06.695Z,27.95
2022-12-18T14:46:37.513Z,24.23
2022-12-18T14:49:20.436Z,24.75
2022-12-18T14:51:50.714Z,25.83
2022-12-18T14:54:20.500Z,24.27
2022-12-18T14:56:51.154Z,25.85
2022-12-18T14:59:24.675Z,25.67
2022-12-18T15:02:00.955Z,25.27
2022-12-18T15:04:35.975Z,25.77
2022-12-18T15:07:09.714Z,28.77
2022-12-18T15:09:38.586Z,27.95
2022-12-18T15:12:06.934Z,31.98
2022-12-18T15:14:40.712Z,31.40
2022-12-18T15:17:19.509Z,32.72
2022-12-18T15:19:50.401Z,32.30
2022-12-18T15:22:22.502Z,31.90
2022-12-18T15:25:21.866Z,27.08
2022-12-18T15:27:49.735Z,27.85
2022-12-18T15:30:23.226Z,29.83
2022-12-18T15:32:52.276Z,29.42
2022-12-18T15:35:23.779Z,27.88
2022-12-18T15:37:52.527Z,27.60
2022-12-18T15:40:22.068Z,30.95
2022-12-18T15:43:04.449Z,34.25
2022-12-18T15:45:32.245Z,33.42
2022-12-18T15:48:00.366Z,31.30
2022-12-18T15:50:29.918Z,29.25
2022-12-18T15:52:58.772Z,31.65
2022-12-18T15:55:40.526Z,31.50
2022-12-18T15:58:11.451Z,29.55
2022-12-18T16:00:41.946Z,33.22
2022-12-18T16:03:11.746Z,30.77
2022-12-18T16:05:40.886Z,29.90
2022-12-18T16:08:08.621Z,28.02
2022-12-18T16:10:37.194Z,26.45
2022-12-18T16:13:04.887Z,28.85
2022-12-18T16:15:32.647Z,29.73
2022-12-18T16:18:00.358Z,29.98
2022-12-18T16:20:28.035Z,29.67
2022-12-18T16:22:57.029Z,26.58
2022-12-18T16:25:27.052Z,25.35
2022-12-18T16:27:56.182Z,26.15
2022-12-18T16:30:28.026Z,27.50
2022-12-18T16:32:57.194Z,26.00
2022-12-18T16:35:27.787Z,24.95
2022-12-18T16:37:57.059Z,26.60
2022-12-18T16:40:25.512Z,25.02
2022-12-18T16:42:53.275Z,28.02
2022-12-18T16:45:21.089Z,26.70
2022-12-18T16:47:48.810Z,27.05
2022-12-18T16:50:16.858Z,26.85
2022-12-18T16:52:45.638Z,25.33
2022-12-18T16:55:15.619Z,25.67
2022-12-18T16:57:43.355Z,31.90
2022-12-18T17:00:12.211Z,27.00
2022-12-18T17:02:40.285Z,24.10
2022-12-18T17:05:08.597Z,24.27
2022-12-18T17:07:36.342Z,26.58
2022-12-18T17:10:09.242Z,23.45
2022-12-18T17:12:39.111Z,26.35
2022-12-18T17:15:07.789Z,27.77
2022-12-18T17:17:36.569Z,23.55
2022-12-18T17:20:05.881Z,24.88
2022-12-18T17:22:33.566Z,26.98
2022-12-18T17:25:01.395Z,28.42
2022-12-18T17:27:29.190Z,28.50
2022-12-18T17:29:58.179Z,27.00
2022-12-18T17:32:25.841Z,25.30
2022-12-18T17:34:53.554Z,25.50
2022-12-18T17:37:21.272Z,26.33
2022-12-18T17:39:49.006Z,24.15
2022-12-18T17:42:16.686Z,24.45
2022-12-18T17:44:44.667Z,23.55
2022-12-18T17:47:13.919Z,26.63
2022-12-18T17:49:42.018Z,24.92
2022-12-18T17:52:10.195Z,26.15
2022-12-18T17:54:41.805Z,26.83
2022-12-18T17:57:10.914Z,26.58
2022-12-18T17:59:38.692Z,26.95
2022-12-18T18:02:06.595Z,27.50
2022-12-18T18:04:35.786Z,27.52
2022-12-18T18:07:03.546Z,24.17
2022-12-18T18:09:32.294Z,23.98
2022-12-18T18:12:14.044Z,24.92
2022-12-18T18:14:41.854Z,27.38
2022-12-18T18:17:09.563Z,27.45
2022-12-18T18:19:38.590Z,25.20
2022-12-18T18:22:07.482Z,26.92
2022-12-18T18:24:35.712Z,24.98
2022-12-18T18:27:03.433Z,23.27
2022-12-18T18:29:31.510Z,23.00
2022-12-18T18:31:59.407Z,26.95
2022-12-18T18:34:28.793Z,26.85
2022-12-18T18:37:00.223Z,25.42
2022-12-18T18:39:28.592Z,25.55
2022-12-18T18:41:57.162Z,24.38
2022-12-18T18:44:26.358Z,27.65
2022-12-18T18:46:55.850Z,25.40
2022-12-18T18:49:26.937Z,29.38
2022-12-18T18:51:55.141Z,28.80
2022-12-18T18:54:24.144Z,30.80
2022-12-18T18:59:39.729Z,28.70
2022-12-18T19:02:08.236Z,30.50
2022-12-18T19:04:40.908Z,31.65
2022-12-18T19:07:14.529Z,32.97
2022-12-18T19:09:51.878Z,30.48
2022-12-18T19:12:33.623Z,30.08
2022-12-18T19:15:01.487Z,30.48
2022-12-18T19:17:31.599Z,29.20
2022-12-18T19:19:59.666Z,29.17
2022-12-18T19:22:27.427Z,27.88
2022-12-18T19:24:56.475Z,27.38
2022-12-18T19:27:24.236Z,28.17
2022-12-18T19:29:51.930Z,26.05
2022-12-18T19:32:19.983Z,27.17
2022-12-18T19:34:47.934Z,25.15
2022-12-18T19:37:16.174Z,24.90
2022-12-18T19:39:43.986Z,26.00
2022-12-18T19:42:12.982Z,28.70
2022-12-18T19:44:41.227Z,25.63
2022-12-18T19:47:08.918Z,28.63
2022-12-18T19:49:38.527Z,29.40
2022-12-18T19:52:06.387Z,25.90
2022-12-18T19:54:34.071Z,26.77
2022-12-18T19:57:02.447Z,27.38
2022-12-18T19:59:31.458Z,25.77
2022-12-18T20:01:59.425Z,23.55
2022-12-18T20:04:27.328Z,25.45
2022-12-18T20:06:55.487Z,26.45
2022-12-18T20:09:23.733Z,26.38
2022-12-18T20:11:51.676Z,27.13
2022-12-18T20:14:21.167Z,27.63
2022-12-18T20:16:53.328Z,25.95
2022-12-18T20:19:22.765Z,23.95
2022-12-18T20:21:50.815Z,23.48
2022-12-18T20:24:18.622Z,26.63
2022-12-18T20:26:46.411Z,24.70
2022-12-18T20:29:14.260Z,26.50
2022-12-18T20:31:42.472Z,24.83
2022-12-18T20:34:12.944Z,26.92
2022-12-18T20:36:41.769Z,28.63
2022-12-18T20:39:10.976Z,25.92
2022-12-18T20:41:40.751Z,25.63
2022-12-18T20:44:21.425Z,26.00
2022-12-18T20:46:53.290Z,26.77
2022-12-18T20:49:23.034Z,23.08
2022-12-18T20:51:52.465Z,27.05
2022-12-18T20:54:20.657Z,26.38
2022-12-18T20:56:48.351Z,27.23
2022-12-18T20:59:17.615Z,25.40
2022-12-18T21:01:48.614Z,25.33
2022-12-18T21:04:18.266Z,26.15
2022-12-18T21:06:52.941Z,28.83
2022-12-18T21:09:23.716Z,23.05
2022-12-18T21:12:05.659Z,25.77
2022-12-18T21:14:33.618Z,27.85
2022-12-18T21:17:02.210Z,24.23
2022-12-18T21:19:30.651Z,25.67
2022-12-18T21:22:00.165Z,25.73
2022-12-18T21:24:29.709Z,28.80
2022-12-18T21:27:01.836Z,27.95
2022-12-18T21:29:29.747Z,24.20
2022-12-18T21:31:57.703Z,25.67
2022-12-18T21:34:27.195Z,27.23
2022-12-18T21:36:55.437Z,27.00
2022-12-18T21:39:25.161Z,24.23
2022-12-18T21:42:07.430Z,25.92
2022-12-18T21:44:36.162Z,26.65
2022-12-18T21:47:22.070Z,27.27
2022-12-18T21:49:50.682Z,24.25
2022-12-18T21:52:18.412Z,27.77
2022-12-18T21:54:47.442Z,26.25
2022-12-18T21:57:15.117Z,30.15
2022-12-18T21:59:44.113Z,29.58
2022-12-18T22:02:14.325Z,26.10
2022-12-18T22:04:42.600Z,27.33
2022-12-18T22:07:11.558Z,27.25
2022-12-18T22:09:39.416Z,29.10
2022-12-18T22:12:09.814Z,30.23
2022-12-18T22:14:37.688Z,29.30
2022-12-18T22:17:05.414Z,32.17
2022-12-18T22:19:36.756Z,28.25
2022-12-18T22:22:10.332Z,28.55
2022-12-18T22:24:37.997Z,27.23
2022-12-18T22:27:05.951Z,25.63
2022-12-18T22:29:48.914Z,26.52
2022-12-18T22:32:20.656Z,26.50
2022-12-18T22:35:05.328Z,29.77
2022-12-18T22:37:35.032Z,28.55
2022-12-18T22:40:03.341Z,28.67
2022-12-18T22:42:31.775Z,26.50
2022-12-18T22:45:01.040Z,27.10
2022-12-18T22:47:30.462Z,27.85
2022-12-18T22:49:58.886Z,24.92
2022-12-18T22:52:26.617Z,27.75
2022-12-18T22:54:54.801Z,27.52
2022-12-18T22:57:22.654Z,26.50
2022-12-18T22:59:50.557Z,28.00
2022-12-18T23:02:19.995Z,26.05
2022-12-18T23:04:48.290Z,27.20
2022-12-18T23:07:16.008Z,26.52
2022-12-18T23:09:44.051Z,29.02
2022-12-18T23:12:16.946Z,26.98
2022-12-18T23:14:45.126Z,26.88
2022-12-18T23:17:12.839Z,25.25
2022-12-18T23:19:48.494Z,25.63
2022-12-18T23:22:16.890Z,25.55
2022-12-18T23:24:44.611Z,25.65
2022-12-18T23:27:12.412Z,24.38
2022-12-18T23:29:40.326Z,25.60
2022-12-18T23:32:08.627Z,25.20
2022-12-18T23:34:36.348Z,24.45
2022-12-18T23:37:05.666Z,25.15
2022-12-18T23:39:33.292Z,26.77
2022-12-18T23:42:01.421Z,26.25
2022-12-18T23:44:29.491Z,27.33
2022-12-18T23:46:57.301Z,23.42
2022-12-18T23:49:25.126Z,28.20
2022-12-18T23:51:54.863Z,28.48
2022-12-18T23:54:32.689Z,25.02
2022-12-18T23:57:01.908Z,23.98
2022-12-18T23:59:29.621Z,27.45
